Time;durP1;ratioP1;P1;durP2;ratioP2;P2;SDS_P1;SDS_P2;PMS_P1;PMS_P2;Temp;Humidity;BMP_temperature;BMP_pressure;BME280_temperature;BME280_humidity;BME280_pressure;Samples;Min_cycle;Max_cycle;Signal;HPM_P1;HPM_P2
2022/11/02 00:00:20;;;;;;;1999.90;999.90;;;7.80;99.90;;;;;;5090222;28;20458;-66
2022/11/02 00:02:46;;;;;;;1999.90;999.90;;;7.70;99.90;;;;;;5089068;28;20442;-66
2022/11/02 00:05:14;;;;;;;1999.90;999.90;;;7.70;99.90;;;;;;5089776;28;20441;-67
2022/11/02 00:07:42;;;;;;;1999.90;999.90;;;7.70;99.90;;;;;;5089860;28;20495;-68
2022/11/02 00:10:10;;;;;;;1999.90;999.90;;;7.70;99.90;;;;;;5089386;28;20458;-66
2022/11/02 00:12:37;;;;;;;1999.90;999.90;;;7.70;99.90;;;;;;5089059;28;20552;-66
2022/11/02 00:15:07;;;;;;;1999.90;999.90;;;7.60;99.90;;;;;;5088973;28;20606;-66
2022/11/02 00:17:36;;;;;;;1999.90;999.90;;;7.60;99.90;;;;;;5089263;28;20442;-67
2022/11/02 00:20:04;;;;;;;1999.90;999.90;;;7.60;99.90;;;;;;5088723;28;20563;-64
2022/11/02 00:22:32;;;;;;;1999.90;999.90;;;7.50;99.90;;;;;;5088518;28;20454;-66
2022/11/02 00:24:59;;;;;;;1999.90;999.90;;;7.50;99.90;;;;;;5088274;28;20541;-66
2022/11/02 00:27:26;;;;;;;1999.90;999.90;;;7.50;99.90;;;;;;5089082;28;20438;-67
2022/11/02 00:29:53;;;;;;;1999.90;999.90;;;7.60;99.90;;;;;;5084149;28;20478;-67
2022/11/02 00:32:21;;;;;;;1999.90;999.90;;;7.50;99.90;;;;;;5081590;28;20478;-68
2022/11/02 00:34:48;;;;;;;1999.90;999.90;;;7.50;99.90;;;;;;5079013;28;20455;-69
2022/11/02 00:37:15;;;;;;;1999.90;999.90;;;7.50;99.90;;;;;;5073961;28;20466;-67
2022/11/02 00:39:42;;;;;;;1999.90;999.90;;;7.50;99.90;;;;;;5088023;28;20474;-67
2022/11/02 00:42:10;;;;;;;1999.90;999.90;;;7.60;99.90;;;;;;5076308;28;20447;-69
2022/11/02 00:44:36;;;;;;;1999.90;999.90;;;7.50;99.90;;;;;;5067438;28;20474;-69
2022/11/02 00:47:03;;;;;;;1999.90;999.90;;;7.50;99.90;;;;;;5067083;28;20564;-67
2022/11/02 00:49:31;;;;;;;1999.90;999.90;;;7.50;99.90;;;;;;5067153;28;21004;-67
2022/11/02 00:51:59;;;;;;;1999.90;999.90;;;7.60;99.90;;;;;;5066107;28;20853;-67
2022/11/02 00:54:26;;;;;;;1999.90;999.90;;;7.60;99.90;;;;;;5067084;28;20439;-67
2022/11/02 00:56:52;;;;;;;1999.90;999.90;;;7.60;99.90;;;;;;5082684;28;20442;-68
2022/11/02 00:59:19;;;;;;;1999.90;999.90;;;7.70;99.90;;;;;;5087201;28;20462;-68
2022/11/02 01:01:51;;;;;;;1999.90;999.90;;;7.70;99.90;;;;;;5086299;28;20441;-68
2022/11/02 01:04:18;;;;;;;1999.90;999.90;;;7.60;99.90;;;;;;5086961;28;20450;-68
2022/11/02 01:06:46;;;;;;;1999.90;999.90;;;7.70;99.90;;;;;;5086888;28;20453;-67
2022/11/02 01:09:15;;;;;;;1999.90;999.90;;;7.70;99.90;;;;;;5087423;28;20833;-68
2022/11/02 01:11:42;;;;;;;1999.90;999.90;;;7.70;99.90;;;;;;5086543;28;20482;-67
2022/11/02 01:14:10;;;;;;;1999.90;999.90;;;7.80;99.90;;;;;;5087304;28;20442;-67
2022/11/02 01:16:38;;;;;;;1999.90;999.90;;;7.90;99.90;;;;;;5087161;28;20434;-67
2022/11/02 01:19:06;;;;;;;1999.90;999.90;;;7.90;99.90;;;;;;5086654;28;21074;-67
2022/11/02 01:21:33;;;;;;;1999.90;999.90;;;8.20;99.90;;;;;;5086476;28;20438;-68
2022/11/02 01:24:01;;;;;;;1999.90;999.90;;;8.30;99.90;;;;;;5086696;28;20443;-66
2022/11/02 01:26:28;;;;;;;1999.90;999.90;;;8.30;99.90;;;;;;5086540;28;20443;-68
2022/11/02 01:28:55;;;;;;;1999.90;999.90;;;8.30;99.90;;;;;;5086466;28;20459;-68
2022/11/02 01:31:22;;;;;;;1999.90;999.90;;;8.30;99.90;;;;;;5086307;28;20991;-68
2022/11/02 01:33:48;;;;;;;1999.90;999.90;;;8.30;99.90;;;;;;5086313;28;20869;-68
2022/11/02 01:36:19;;;;;;;1999.90;999.90;;;8.30;99.90;;;;;;5084956;28;20480;-69
2022/11/02 01:38:47;;;;;;;1999.90;999.90;;;8.30;99.90;;;;;;5080578;28;20848;-67
2022/11/02 01:41:16;;;;;;;1999.90;999.90;;;8.30;99.90;;;;;;5067796;28;20451;-67
2022/11/02 01:43:44;;;;;;;1999.90;999.90;;;8.50;99.90;;;;;;5067546;28;20470;-67
2022/11/02 01:46:16;;;;;;;1999.90;999.90;;;8.50;99.90;;;;;;5066484;28;20451;-67
2022/11/02 01:48:47;;;;;;;1999.90;999.90;;;8.50;99.90;;;;;;5068120;28;20463;-70
2022/11/02 01:51:18;;;;;;;1999.90;999.90;;;8.50;99.90;;;;;;5068100;28;20482;-68
2022/11/02 01:53:47;;;;;;;1999.90;999.90;;;8.50;99.90;;;;;;5067581;28;20446;-68
2022/11/02 01:56:20;;;;;;;1999.90;999.90;;;8.50;99.90;;;;;;5068916;28;20443;-69
2022/11/02 01:58:52;;;;;;;1999.90;999.90;;;8.50;99.90;;;;;;5069020;28;20463;-67
2022/11/02 02:01:19;;;;;;;1999.90;999.90;;;8.60;99.90;;;;;;5068716;28;20483;-67
2022/11/02 02:03:47;;;;;;;1999.90;999.90;;;8.60;99.90;;;;;;5068879;28;20443;-69
2022/11/02 02:06:15;;;;;;;1999.90;999.90;;;8.70;99.90;;;;;;5068793;28;20983;-67
2022/11/02 02:08:46;;;;;;;1999.90;999.90;;;8.70;99.90;;;;;;5069131;28;20467;-68
2022/11/02 02:11:27;;;;;;;1999.90;999.90;;;8.70;99.90;;;;;;5068567;28;20538;-67
2022/11/02 02:13:55;;;;;;;1999.90;999.90;;;8.70;99.90;;;;;;5068802;28;20453;-67
2022/11/02 02:16:31;;;;;;;1999.90;999.90;;;8.70;99.90;;;;;;5070378;28;20985;-67
2022/11/02 02:19:02;;;;;;;1999.90;999.90;;;8.70;99.90;;;;;;5073022;28;20458;-66
2022/11/02 02:21:41;;;;;;;1999.90;999.90;;;8.70;99.90;;;;;;5072534;28;20435;-69
2022/11/02 02:24:30;;;;;;;1999.90;999.90;;;8.80;99.90;;;;;;5073146;28;20474;-67
2022/11/02 02:27:11;;;;;;;1999.90;999.90;;;8.90;99.90;;;;;;5072876;28;20449;-69
2022/11/02 02:30:04;;;;;;;1999.90;999.90;;;8.90;99.90;;;;;;5072527;28;20832;-68
2022/11/02 02:32:38;;;;;;;1999.90;999.90;;;9.00;99.90;;;;;;5072044;28;20490;-67
2022/11/02 02:35:15;;;;;;;1999.90;999.90;;;9.10;99.90;;;;;;5072169;28;20785;-67
2022/11/02 02:37:48;;;;;;;1999.90;999.90;;;9.00;99.90;;;;;;5072521;28;20446;-68
2022/11/02 02:40:19;;;;;;;1999.90;999.90;;;9.10;99.90;;;;;;5072311;28;20478;-68
2022/11/02 02:42:52;;;;;;;1999.90;999.90;;;9.10;99.90;;;;;;5071759;28;20495;-67
2022/11/02 02:45:24;;;;;;;1999.90;999.90;;;9.20;99.90;;;;;;5071990;28;20443;-67
2022/11/02 02:48:00;;;;;;;1999.90;999.90;;;9.20;99.90;;;;;;5072291;28;20447;-69
2022/11/02 02:50:30;;;;;;;1999.90;999.90;;;9.10;99.90;;;;;;5072243;28;20449;-67
2022/11/02 02:53:00;;;;;;;1999.90;999.90;;;9.10;99.90;;;;;;5071617;28;20500;-67
2022/11/02 02:55:31;;;;;;;1999.90;999.90;;;9.10;99.90;;;;;;5072136;28;20443;-67
2022/11/02 02:58:00;;;;;;;1999.90;999.90;;;9.20;99.90;;;;;;5072182;28;20442;-67
2022/11/02 03:00:30;;;;;;;1999.90;999.90;;;9.30;99.90;;;;;;5071876;28;20454;-67
2022/11/02 03:03:01;;;;;;;1999.90;999.90;;;9.20;99.90;;;;;;5071237;28;20438;-69
2022/11/02 03:05:31;;;;;;;1999.90;999.90;;;9.20;99.90;;;;;;5071589;28;20447;-68
2022/11/02 03:08:04;;;;;;;1999.90;999.90;;;9.30;99.90;;;;;;5072009;28;20458;-68
2022/11/02 03:10:41;;;;;;;1999.90;999.90;;;9.30;99.90;;;;;;5071815;28;20929;-67
2022/11/02 03:13:27;;;;;;;1999.90;999.90;;;9.30;99.90;;;;;;5071202;28;20487;-68
2022/11/02 03:16:01;;;;;;;1999.90;999.90;;;9.30;99.90;;;;;;5071201;28;20466;-69
2022/11/02 03:18:36;;;;;;;1999.90;999.90;;;9.40;99.90;;;;;;5071592;28;20981;-67
2022/11/02 03:21:07;;;;;;;1999.90;999.90;;;9.40;99.90;;;;;;5071395;28;20445;-67
2022/11/02 03:23:38;;;;;;;1999.90;999.90;;;9.40;99.90;;;;;;5071149;28;20447;-67
2022/11/02 03:26:10;;;;;;;1999.90;999.90;;;9.50;99.90;;;;;;5071103;28;20454;-68
2022/11/02 03:28:48;;;;;;;1999.90;999.90;;;9.50;99.90;;;;;;5070208;28;20462;-67
2022/11/02 03:31:23;;;;;;;1999.90;999.90;;;9.50;99.90;;;;;;5071084;28;20447;-69
2022/11/02 03:33:56;;;;;;;1999.90;999.90;;;9.50;99.90;;;;;;5070753;28;21051;-68
2022/11/02 03:36:31;;;;;;;1999.90;999.90;;;9.50;99.90;;;;;;5070813;28;20504;-68
2022/11/02 03:39:04;;;;;;;1999.90;999.90;;;9.40;99.90;;;;;;5071330;28;20501;-68
2022/11/02 03:41:32;;;;;;;1999.90;999.90;;;9.50;99.90;;;;;;5070978;28;20456;-67
2022/11/02 03:44:04;;;;;;;1999.90;999.90;;;9.50;99.90;;;;;;5070730;28;20959;-67
2022/11/02 03:46:34;;;;;;;1999.90;999.90;;;9.50;99.90;;;;;;5070842;28;20450;-67
2022/11/02 03:49:02;;;;;;;1999.90;999.90;;;9.40;99.90;;;;;;5070903;28;20475;-68
2022/11/02 03:51:31;;;;;;;1999.90;999.90;;;9.40;99.90;;;;;;5070618;28;20447;-69
2022/11/02 03:54:05;;;;;;;1999.90;999.90;;;9.40;99.90;;;;;;5070656;28;20458;-67
2022/11/02 03:56:35;;;;;;;1999.90;999.90;;;9.40;99.90;;;;;;5070451;28;20450;-68
2022/11/02 03:59:02;;;;;;;1999.90;999.90;;;9.40;99.90;;;;;;5070694;28;20467;-67
2022/11/02 04:01:30;;;;;;;1999.90;999.90;;;9.40;99.90;;;;;;5070316;28;20451;-67
2022/11/02 04:03:58;;;;;;;1999.90;999.90;;;9.40;99.90;;;;;;5070489;28;20447;-67
2022/11/02 04:06:27;;;;;;;1999.90;999.90;;;9.40;99.90;;;;;;5070360;28;20975;-69
2022/11/02 04:08:53;;;;;;;1999.90;999.90;;;9.40;99.90;;;;;;5070502;28;20470;-67
2022/11/02 04:19:26;;;;;;;1999.90;999.90;;;9.40;99.90;;;;;;5070782;28;20442;-69
2022/11/02 04:19:37;;;;;;;1999.90;999.90;;;9.30;99.90;;;;;;5070353;28;20454;-65
2022/11/02 04:27:29;;;;;;;1999.90;999.90;;;9.40;99.90;;;;;;5070433;28;20423;-67
2022/11/02 04:29:55;;;;;;;1999.90;999.90;;;9.30;99.90;;;;;;5070600;28;20467;-67
2022/11/02 04:35:05;;;;;;;1999.90;999.90;;;9.20;99.90;;;;;;5069727;28;20439;-66
2022/11/02 04:40:21;;;;;;;1999.90;999.90;;;9.10;99.90;;;;;;5069942;28;20430;-67
2022/11/02 04:42:48;;;;;;;1999.90;999.90;;;9.00;99.90;;;;;;5069424;28;20446;-67
2022/11/02 04:45:14;;;;;;;1999.90;999.90;;;9.00;99.90;;;;;;5069758;28;20522;-67
2022/11/02 04:47:41;;;;;;;1999.90;999.90;;;9.00;99.90;;;;;;5070380;28;20443;-67
2022/11/02 04:50:10;;;;;;;1999.90;999.90;;;8.90;99.90;;;;;;5070024;28;20485;-67
2022/11/02 04:52:38;;;;;;;1999.90;999.90;;;8.80;99.90;;;;;;5069069;28;20474;-66
2022/11/02 04:55:05;;;;;;;1999.90;999.90;;;8.90;99.90;;;;;;5069622;28;20447;-67
2022/11/02 04:57:32;;;;;;;1999.90;999.90;;;8.90;99.90;;;;;;5069674;28;20451;-67
2022/11/02 05:00:00;;;;;;;1999.90;999.90;;;8.90;99.90;;;;;;5069910;28;20485;-69
2022/11/02 05:02:27;;;;;;;1999.90;999.90;;;8.90;99.90;;;;;;5069041;28;20501;-67
2022/11/02 05:04:53;;;;;;;1999.90;999.90;;;8.90;99.90;;;;;;5069510;28;20471;-68
2022/11/02 05:07:21;;;;;;;1999.90;999.90;;;8.80;99.90;;;;;;5069600;28;20983;-68
2022/11/02 05:09:48;;;;;;;1999.90;999.90;;;8.70;99.90;;;;;;5069595;28;20459;-67
2022/11/02 05:12:15;;;;;;;1999.90;999.90;;;8.70;99.90;;;;;;5068412;28;20481;-67
2022/11/02 05:14:42;;;;;;;1999.90;999.90;;;8.80;99.90;;;;;;5069137;28;21074;-67
2022/11/02 05:17:09;;;;;;;1999.90;999.90;;;8.80;99.90;;;;;;5069638;28;20447;-66
2022/11/02 05:19:35;;;;;;;1999.90;999.90;;;8.70;99.90;;;;;;5069512;28;20490;-68
2022/11/02 05:22:02;;;;;;;1999.90;999.90;;;8.70;99.90;;;;;;5068524;28;20811;-68
2022/11/02 05:24:30;;;;;;;1999.90;999.90;;;8.70;99.90;;;;;;5069114;28;20933;-67
2022/11/02 05:26:59;;;;;;;1999.90;999.90;;;8.80;99.90;;;;;;5069319;28;20964;-67
2022/11/02 05:29:26;;;;;;;1999.90;999.90;;;8.80;99.90;;;;;;5069541;28;20477;-67
2022/11/02 05:31:53;;;;;;;1999.90;999.90;;;8.90;99.90;;;;;;5068665;28;20534;-67
2022/11/02 05:34:19;;;;;;;1999.90;999.90;;;8.80;99.90;;;;;;5068912;28;20454;-67
2022/11/02 05:36:48;;;;;;;1999.90;999.90;;;8.90;99.90;;;;;;5069574;28;20443;-67
2022/11/02 05:39:15;;;;;;;1999.90;999.90;;;8.90;99.90;;;;;;5069157;28;20463;-67
2022/11/02 05:41:43;;;;;;;1999.90;999.90;;;8.90;99.90;;;;;;5068445;28;20844;-68
2022/11/02 05:44:10;;;;;;;1999.90;999.90;;;9.00;99.90;;;;;;5069427;28;20841;-68
2022/11/02 05:46:36;;;;;;;1999.90;999.90;;;9.00;99.90;;;;;;5069128;28;20447;-68
2022/11/02 05:49:03;;;;;;;1999.90;999.90;;;9.00;99.90;;;;;;5069090;28;20474;-66
2022/11/02 05:51:30;;;;;;;1999.90;999.90;;;9.00;99.90;;;;;;5070675;28;20443;-68
2022/11/02 05:53:57;;;;;;;1999.90;999.90;;;9.00;99.90;;;;;;5072738;28;20479;-67
2022/11/02 05:56:24;;;;;;;1999.90;999.90;;;9.10;99.90;;;;;;5072884;28;20442;-68
2022/11/02 05:58:54;;;;;;;1999.90;999.90;;;9.10;99.90;;;;;;5073015;28;20478;-69
2022/11/02 06:01:21;;;;;;;1999.90;999.90;;;9.10;99.90;;;;;;5072984;28;20442;-69
2022/11/02 06:03:47;;;;;;;1999.90;999.90;;;9.20;99.90;;;;;;5072584;28;20470;-68
2022/11/02 06:06:14;;;;;;;1999.90;999.90;;;9.10;99.90;;;;;;5072726;28;20816;-67
2022/11/02 06:08:41;;;;;;;1999.90;999.90;;;9.20;99.90;;;;;;5078459;28;20462;-68
2022/11/02 06:11:09;;;;;;;1999.90;999.90;;;9.20;99.90;;;;;;5088888;28;20447;-68
2022/11/02 06:13:37;;;;;;;1999.90;999.90;;;9.30;99.90;;;;;;5079846;28;20488;-66
2022/11/02 06:16:08;;;;;;;1999.90;999.90;;;9.40;99.90;;;;;;5086385;28;20457;-66
2022/11/02 06:18:35;;;;;;;1999.90;999.90;;;9.40;99.90;;;;;;5085393;28;20484;-69
2022/11/02 06:21:02;;;;;;;1999.90;999.90;;;9.40;99.90;;;;;;5089662;28;20817;-66
2022/11/02 06:23:29;;;;;;;1999.90;999.90;;;9.40;99.90;;;;;;5080913;28;20433;-67
2022/11/02 06:25:58;;;;;;;1999.90;999.90;;;9.40;99.90;;;;;;5091436;28;20446;-67
2022/11/02 06:28:26;;;;;;;1999.90;999.90;;;9.40;99.90;;;;;;5089037;28;20454;-67
2022/11/02 06:30:53;;;;;;;1999.90;999.90;;;9.50;99.90;;;;;;5086440;28;20456;-68
2022/11/02 06:33:22;;;;;;;1999.90;999.90;;;9.50;99.90;;;;;;5086996;28;20568;-69
2022/11/02 06:35:50;;;;;;;1999.90;999.90;;;9.50;99.90;;;;;;5091445;28;20453;-67
2022/11/02 06:38:17;;;;;;;1999.90;999.90;;;9.40;99.90;;;;;;5084428;28;20450;-67
2022/11/02 06:40:53;;;;;;;1999.90;999.90;;;9.50;99.90;;;;;;5091109;28;20451;-67
2022/11/02 06:43:20;;;;;;;1999.90;999.90;;;9.50;99.90;;;;;;5084726;28;20434;-68
2022/11/02 06:45:47;;;;;;;1999.90;999.90;;;9.60;99.90;;;;;;5082704;28;20454;-67
2022/11/02 06:48:14;;;;;;;1999.90;999.90;;;9.70;99.90;;;;;;5087303;28;20442;-67
2022/11/02 06:50:42;;;;;;;1999.90;999.90;;;9.80;99.90;;;;;;5089702;28;20442;-68
2022/11/02 06:53:09;;;;;;;1999.90;999.90;;;10.00;99.90;;;;;;5092185;28;20881;-67
2022/11/02 06:55:35;;;;;;;1999.90;999.90;;;10.10;99.90;;;;;;5092342;28;20446;-67
2022/11/02 06:58:02;;;;;;;1999.90;999.90;;;10.20;99.90;;;;;;5092463;28;20464;-70
2022/11/02 07:00:29;;;;;;;1999.90;999.90;;;10.40;99.90;;;;;;5084179;28;20457;-67
2022/11/02 07:03:00;;;;;;;1999.90;999.90;;;10.40;99.90;;;;;;5087445;28;20442;-67
2022/11/02 07:05:26;;;;;;;1999.90;999.90;;;10.50;99.90;;;;;;5091889;28;20442;-69
2022/11/02 07:07:54;;;;;;;1999.90;999.90;;;10.60;99.90;;;;;;5092394;28;20438;-67
2022/11/02 07:10:22;;;;;;;1999.90;999.90;;;10.70;99.90;;;;;;5092005;28;20478;-67
2022/11/02 07:12:51;;;;;;;1999.90;999.90;;;10.80;99.90;;;;;;5091046;28;20889;-67
2022/11/02 07:15:18;;;;;;;1999.90;999.90;;;10.80;99.90;;;;;;5083079;28;20451;-68
2022/11/02 07:17:45;;;;;;;1999.90;999.90;;;10.70;99.90;;;;;;5089072;28;21049;-69
2022/11/02 07:20:12;;;;;;;1999.90;999.90;;;10.80;99.90;;;;;;5084239;28;20467;-67
2022/11/02 07:22:39;;;;;;;1999.90;999.90;;;11.10;99.90;;;;;;5090872;28;20446;-69
2022/11/02 07:25:08;;;;;;;1999.90;999.90;;;11.30;99.90;;;;;;5079476;28;20443;-68
2022/11/02 07:27:39;;;;;;;1999.90;999.90;;;11.40;99.90;;;;;;5091572;28;20449;-67
2022/11/02 07:30:07;;;;;;;1999.90;999.90;;;11.40;99.90;;;;;;5091276;28;20931;-69
2022/11/02 07:32:40;;;;;;;1999.90;999.90;;;11.30;99.90;;;;;;5090672;28;20955;-67
2022/11/02 07:35:07;;;;;;;1999.90;999.90;;;11.30;99.90;;;;;;5091273;28;20457;-67
2022/11/02 07:37:34;;;;;;;1999.90;999.90;;;11.30;99.90;;;;;;5091511;28;20449;-67
2022/11/02 07:40:01;;;;;;;1999.90;999.90;;;11.40;99.90;;;;;;5083636;28;20477;-66
2022/11/02 07:42:29;;;;;;;1999.90;999.90;;;11.60;99.90;;;;;;5084686;28;21202;-68
2022/11/02 07:44:56;;;;;;;1999.90;999.90;;;11.70;99.90;;;;;;5091285;28;20470;-68
2022/11/02 07:47:23;;;;;;;1999.90;999.90;;;11.70;99.90;;;;;;5091441;28;20445;-68
2022/11/02 07:49:50;;;;;;;1999.90;999.90;;;11.80;99.90;;;;;;5085268;28;20471;-67
2022/11/02 07:52:16;;;;;;;1999.90;999.90;;;11.80;99.90;;;;;;5083934;28;20449;-68
2022/11/02 07:54:43;;;;;;;1999.90;999.90;;;11.60;99.90;;;;;;5085736;28;20482;-67
2022/11/02 07:57:10;;;;;;;1999.90;999.90;;;11.50;99.90;;;;;;5080647;28;20450;-68
2022/11/02 07:59:38;;;;;;;1999.90;999.90;;;11.50;99.90;;;;;;5086477;28;20488;-68
2022/11/02 08:02:05;;;;;;;1999.90;999.90;;;11.50;99.90;;;;;;5079886;28;20447;-68
2022/11/02 08:04:33;;;;;;;1999.90;999.90;;;11.80;99.90;;;;;;5082016;28;20824;-67
2022/11/02 08:06:59;;;;;;;1999.90;999.90;;;12.00;99.90;;;;;;5081630;28;20450;-67
2022/11/02 08:09:26;;;;;;;1999.90;999.90;;;12.20;99.90;;;;;;5080893;28;20473;-68
2022/11/02 08:11:53;;;;;;;1999.90;999.90;;;12.40;99.90;;;;;;5080828;28;20480;-65
2022/11/02 08:14:20;;;;;;;1999.90;999.90;;;12.70;99.90;;;;;;5081683;28;20478;-67
2022/11/02 08:16:51;;;;;;;1999.90;999.90;;;12.90;99.90;;;;;;5083541;28;20447;-68
2022/11/02 08:19:18;;;;;;;1999.90;999.90;;;13.10;99.90;;;;;;5080463;28;20465;-67
2022/11/02 08:21:44;;;;;;;1999.90;999.90;;;13.30;99.90;;;;;;5083149;28;20457;-68
2022/11/02 08:24:11;;;;;;;1999.90;999.90;;;13.50;99.90;;;;;;5086440;28;20442;-65
2022/11/02 08:26:38;;;;;;;1999.90;999.90;;;13.70;99.90;;;;;;5082266;28;20798;-68
2022/11/02 08:29:05;;;;;;;1999.90;999.90;;;13.90;99.90;;;;;;5085924;28;20990;-68
2022/11/02 08:31:31;;;;;;;1999.90;999.90;;;14.20;99.90;;;;;;5089055;28;20445;-66
2022/11/02 08:33:59;;;;;;;1999.90;999.90;;;14.30;99.90;;;;;;5089962;28;20478;-69
2022/11/02 08:36:26;;;;;;;1999.90;999.90;;;14.60;99.90;;;;;;5089894;28;20446;-68
2022/11/02 08:38:53;;;;;;;1999.90;999.90;;;14.80;99.90;;;;;;5083385;28;20466;-69
2022/11/02 08:41:20;;;;;;;1999.90;999.90;;;14.80;99.90;;;;;;5085098;28;20452;-68
2022/11/02 08:43:46;;;;;;;1999.90;999.90;;;15.00;99.90;;;;;;5085032;28;20438;-69
2022/11/02 08:46:13;;;;;;;1999.90;999.90;;;14.90;99.90;;;;;;5083088;28;20438;-69
2022/11/02 08:48:40;;;;;;;1999.90;999.90;;;15.00;99.90;;;;;;5084444;28;20462;-67
2022/11/02 08:51:08;;;;;;;1999.90;999.90;;;15.00;99.90;;;;;;5084700;28;20448;-69
2022/11/02 08:53:35;;;;;;;1999.90;999.90;;;15.00;99.90;;;;;;5089260;28;20573;-70
2022/11/02 08:56:02;;;;;;;1999.90;999.90;;;15.10;99.90;;;;;;5082872;28;20478;-67
2022/11/02 08:58:29;;;;;;;1999.90;999.90;;;15.30;99.90;;;;;;5087272;28;20953;-69
2022/11/02 09:00:56;;;;;;;1999.90;999.90;;;15.30;99.90;;;;;;5080127;28;20446;-67
2022/11/02 09:03:23;;;;;;;1999.90;999.90;;;15.40;99.90;;;;;;5080005;28;20445;-67
2022/11/02 09:05:50;;;;;;;1999.90;999.90;;;15.40;99.90;;;;;;5080217;28;20496;-68
2022/11/02 09:08:20;;;;;;;1999.90;999.90;;;15.30;99.90;;;;;;5077732;28;20446;-67
2022/11/02 09:10:50;;;;;;;1999.90;999.90;;;15.30;99.90;;;;;;5081333;28;20516;-68
2022/11/02 09:13:23;;;;;;;1999.90;999.90;;;15.40;99.90;;;;;;5081845;28;20478;-68
2022/11/02 09:15:51;;;;;;;1999.90;999.90;;;15.50;99.90;;;;;;5080814;28;20562;-69
2022/11/02 09:18:18;;;;;;;1999.90;999.90;;;15.40;99.90;;;;;;5084528;28;20800;-69
2022/11/02 09:20:47;;;;;;;1999.90;999.90;;;15.50;99.90;;;;;;5078531;28;20531;-68
2022/11/02 09:23:14;;;;;;;1999.90;999.90;;;15.30;99.90;;;;;;5079336;28;20476;-68
2022/11/02 09:25:42;;;;;;;1999.90;999.90;;;15.40;99.90;;;;;;5080748;28;20464;-69
2022/11/02 09:28:09;;;;;;;1999.90;999.90;;;15.40;99.90;;;;;;5087788;28;20791;-69
2022/11/02 09:30:35;;;;;;;1999.90;999.90;;;15.40;99.90;;;;;;5086261;28;20450;-68
2022/11/02 09:33:04;;;;;;;1999.90;999.90;;;15.30;99.90;;;;;;5080091;28;20442;-70
2022/11/02 09:35:33;;;;;;;1999.90;999.90;;;15.30;99.90;;;;;;5080680;28;20450;-68
2022/11/02 09:38:00;;;;;;;1999.90;999.90;;;15.30;99.90;;;;;;5086779;28;20445;-68
2022/11/02 09:40:28;;;;;;;1999.90;999.90;;;15.40;99.90;;;;;;5085638;28;21219;-70
2022/11/02 09:43:09;;;;;;;1999.90;999.90;;;15.40;99.90;;;;;;5083570;28;20992;-74
2022/11/02 09:45:54;;;;;;;1999.90;999.90;;;15.50;99.90;;;;;;5079999;28;20454;-73
2022/11/02 09:48:25;;;;;;;1999.90;999.90;;;15.80;99.90;;;;;;5082337;28;20450;-73
2022/11/02 09:51:00;;;;;;;1999.90;999.90;;;16.10;99.90;;;;;;5080656;28;20458;-73
2022/11/02 09:53:39;;;;;;;1999.90;999.90;;;16.20;99.90;;;;;;5074895;28;20862;-73
2022/11/02 09:56:08;;;;;;;1999.90;999.90;;;16.40;99.90;;;;;;5082430;28;20450;-73
2022/11/02 09:58:40;;;;;;;1999.90;999.90;;;16.30;99.90;;;;;;5084076;28;20451;-72
2022/11/02 10:01:21;;;;;;;1999.90;999.90;;;16.30;99.90;;;;;;5084038;28;20465;-74
2022/11/02 10:04:17;;;;;;;1999.90;999.90;;;16.20;99.90;;;;;;5083442;28;20826;-72
2022/11/02 10:06:50;;;;;;;1999.90;999.90;;;16.00;99.90;;;;;;5056024;28;20449;-74
2022/11/02 10:09:24;;;;;;;1999.90;999.90;;;16.00;99.90;;;;;;5083437;28;20461;-73
2022/11/02 10:11:59;;;;;;;1999.90;999.90;;;16.00;99.90;;;;;;5086411;28;20452;-73
2022/11/02 10:14:31;;;;;;;1999.90;999.90;;;15.80;99.90;;;;;;5087505;28;20859;-73
2022/11/02 10:17:02;;;;;;;1999.90;999.90;;;15.70;99.90;;;;;;5083869;28;20892;-73
2022/11/02 10:19:30;;;;;;;1999.90;999.90;;;15.60;99.90;;;;;;5084885;28;20466;-74
2022/11/02 10:21:58;;;;;;;1999.90;999.90;;;15.50;99.90;;;;;;5082127;28;20472;-72
2022/11/02 10:24:31;;;;;;;1999.90;999.90;;;15.50;99.90;;;;;;5086341;28;20451;-73
2022/11/02 10:27:01;;;;;;;1999.90;999.90;;;15.60;99.90;;;;;;5083242;28;20446;-72
2022/11/02 10:29:41;;;;;;;1999.90;999.90;;;15.60;99.90;;;;;;5084217;28;20458;-75
2022/11/02 10:32:10;;;;;;;1999.90;999.90;;;15.50;99.90;;;;;;5076569;28;21186;-74
2022/11/02 10:34:37;;;;;;;1999.90;999.90;;;15.50;99.90;;;;;;5085735;28;20489;-74
2022/11/02 10:37:20;;;;;;;1999.90;999.90;;;15.50;99.90;;;;;;5087362;28;20456;-73
2022/11/02 10:39:57;;;;;;;1999.90;999.90;;;15.40;99.90;;;;;;5089287;28;20994;-72
2022/11/02 10:42:43;;;;;;;1999.90;999.90;;;15.40;99.90;;;;;;5084708;28;20449;-74
2022/11/02 10:45:43;;;;;;;1999.90;999.90;;;15.20;99.90;;;;;;5086851;28;20438;-74
2022/11/02 10:48:17;;;;;;;1999.90;999.90;;;15.30;99.90;;;;;;5087130;28;20437;-74
2022/11/02 10:50:50;;;;;;;1999.90;999.90;;;15.30;99.90;;;;;;5087251;28;20449;-76
2022/11/02 10:53:20;;;;;;;1999.90;999.90;;;15.20;99.90;;;;;;5090296;28;20904;-74
2022/11/02 10:55:56;;;;;;;1999.90;999.90;;;15.30;99.90;;;;;;5087080;28;20553;-74
2022/11/02 10:58:27;;;;;;;1999.90;999.90;;;15.30;99.90;;;;;;5084760;28;20821;-74
2022/11/02 11:01:05;;;;;;;1999.90;999.90;;;15.30;99.90;;;;;;5085899;28;20537;-74
2022/11/02 11:03:32;;;;;;;1999.90;999.90;;;15.40;99.90;;;;;;5090766;28;20434;-74
2022/11/02 11:06:02;;;;;;;1999.90;999.90;;;15.60;99.90;;;;;;5088179;28;20452;-74
2022/11/02 11:08:37;;;;;;;1999.90;999.90;;;15.70;99.90;;;;;;5091289;28;20495;-74
2022/11/02 11:11:13;;;;;;;1999.90;999.90;;;15.90;99.90;;;;;;5089797;28;20494;-74
2022/11/02 11:13:41;;;;;;;1999.90;999.90;;;16.00;99.90;;;;;;5085871;28;20456;-75
2022/11/02 11:16:10;;;;;;;1999.90;999.90;;;15.80;99.90;;;;;;5088539;28;20530;-74
2022/11/02 11:18:37;;;;;;;1999.90;999.90;;;15.70;99.90;;;;;;5087459;28;20466;-74
2022/11/02 11:21:05;;;;;;;1999.90;999.90;;;15.60;99.90;;;;;;5088778;28;20457;-74
2022/11/02 11:23:32;;;;;;;1999.90;999.90;;;15.50;99.90;;;;;;5090181;28;20446;-74
2022/11/02 11:26:01;;;;;;;1999.90;999.90;;;15.40;99.90;;;;;;5089943;28;20450;-74
2022/11/02 11:28:31;;;;;;;1999.90;999.90;;;15.40;99.90;;;;;;5087248;28;20462;-73
2022/11/02 11:31:15;;;;;;;1999.90;999.90;;;15.40;99.90;;;;;;5087139;28;20935;-76
2022/11/02 11:33:47;;;;;;;1999.90;999.90;;;15.40;99.90;;;;;;5084013;28;20446;-72
2022/11/02 11:36:24;;;;;;;1999.90;999.90;;;15.50;99.90;;;;;;5088087;28;20469;-72
2022/11/02 11:38:53;;;;;;;1999.90;999.90;;;15.50;99.90;;;;;;5087063;28;20519;-73
2022/11/02 11:41:20;;;;;;;1999.90;999.90;;;15.50;99.90;;;;;;5081524;28;20441;-73
2022/11/02 11:43:48;;;;;;;1999.90;999.90;;;15.60;99.90;;;;;;5087790;28;20442;-73
2022/11/02 11:46:17;;;;;;;1999.90;999.90;;;15.60;99.90;;;;;;5087874;28;20948;-73
2022/11/02 11:48:48;;;;;;;1999.90;999.90;;;15.50;99.90;;;;;;5085018;28;21286;-73
2022/11/02 11:51:28;;;;;;;1999.90;999.90;;;15.40;99.90;;;;;;5085730;28;20455;-73
2022/11/02 11:54:21;;;;;;;1999.90;999.90;;;15.50;99.90;;;;;;5086470;28;20477;-72
2022/11/02 11:56:49;;;;;;;1999.90;999.90;;;15.50;99.90;;;;;;5074533;28;20829;-74
2022/11/02 11:59:24;;;;;;;1999.90;999.90;;;15.40;99.90;;;;;;5069267;28;20863;-73
2022/11/02 12:01:56;;;;;;;1999.90;999.90;;;15.30;99.90;;;;;;5068613;28;20446;-73
2022/11/02 12:04:34;;;;;;;1999.90;999.90;;;15.20;99.90;;;;;;5069186;28;20435;-72
2022/11/02 12:07:25;;;;;;;1999.90;999.90;;;15.10;99.90;;;;;;5069319;28;20965;-73
2022/11/02 12:10:02;;;;;;;1999.90;999.90;;;15.10;99.90;;;;;;5061526;28;20824;-73
2022/11/02 12:12:39;;;;;;;1999.90;999.90;;;15.10;99.90;;;;;;5069645;28;20447;-73
2022/11/02 12:15:19;;;;;;;1999.90;999.90;;;15.10;99.90;;;;;;5069719;28;20474;-73
2022/11/02 12:18:02;;;;;;;1999.90;999.90;;;15.00;99.90;;;;;;5070279;28;20451;-72
2022/11/02 12:20:53;;;;;;;1999.90;999.90;;;14.90;99.90;;;;;;5069948;28;20459;-73
2022/11/02 12:23:34;;;;;;;1999.90;999.90;;;14.80;99.90;;;;;;5070095;28;21136;-73
2022/11/02 12:26:16;;;;;;;1999.90;999.90;;;15.00;99.90;;;;;;5070383;28;20442;-72
2022/11/02 12:28:50;;;;;;;1999.90;999.90;;;15.20;99.90;;;;;;5070537;28;20458;-72
2022/11/02 12:31:28;;;;;;;1999.90;999.90;;;15.30;99.90;;;;;;5070184;28;20439;-72
2022/11/02 12:34:29;;;;;;;1999.90;999.90;;;15.40;99.90;;;;;;5069662;28;20451;-72